Aérodrome :
LOGIN :

S'inscrire | Disclaimer

   EN    FR    IT 

 










Légende :    VFR   VFR Marginal   IFR   IFR Intensif   IFR Très Intensif
Visi : 
Plafond : 
>= 8 km
>= 3000ft
5 à 8 km
1000 à 3000 ft
1500m à 5 km
500 à 1000 ft
800 à 1500m
200 à 500 ft
< 800m
< 200 ft
Symboles :   Orages  Brouillard  Fortes neiges  Fortes précipitations  Vent > 20 kt
SIGMETs :   Divers  Orages  Givrage  Turbulence  Onde Orograph.  Cendres Volcan.







- Altitude de l'aérodrome : 308 ft
- Code IATA : POZ


EPPO - Poznan-Lawica

DERNIER METAR :
  • 291730Z 31008KT 290V350 9999 FEW050CB 09/M02 Q1017

METARs EXPIRÉS :
  • 291700Z 29007KT 230V320 9999 FEW050CB 10/M01 Q1016
  • 291630Z 23005KT 9999 FEW050CB 09/04 Q1016
  • 291600Z 22006KT 9999 SCT050CB 09/03 Q1016
  • 291530Z 22007KT 9999 BKN036CB 08/01 Q1016
  • 291500Z 30009KT 230V310 9999 BKN036CB 09/00 Q1016

TAF TAF EPPO
Valide du 29 à 18h jusqu'au 30 à 18h UTC


291730Z 2918/3018 27010KT 9999 SCT030
TEMPO 2918/2921 SHRA BKN020CB
PROB30 2918/2920 29015G25KT
TEMPO 2921/3006 03003KT 2500 BR
PROB40
TEMPO 2922/3005 0500 FG OVC002
BECMG 3006/3009 10010KT
Pas de NOTAMs connus pour ce terrain.



MET'MAP, la Météo Aéronautique d'un coup d'oeil ! - Copyright ORBIFLY Décembre 2007 - Disclaimer

ORBIFLY MET'MAP TEAM :

Programmation & Développement : Alexandra Zaïnal
Conception & Développement : Baudouin d'Aumeries
Co-Programmation & Développement : Marc-Olivier Méhu
Soutien technique & logistique : Manuel Goepfert

Contact : metmap@orbifly.com




SOURCES & CREDITS :

   NOAA